Time;durP1;ratioP1;P1;durP2;ratioP2;P2;SDS_P1;SDS_P2;PMS_P1;PMS_P2;Temp;Humidity;BMP_temperature;BMP_pressure;BME280_temperature;BME280_humidity;BME280_pressure;Samples;Min_cycle;Max_cycle;Signal;HPM_P1;HPM_P2
2022/05/19 00:01:05;;;;;;;4.93;2.60;;;;;;;;;;5049499;28;20025;-79
2022/05/19 00:03:33;;;;;;;2.47;2.25;;;;;;;;;;5054272;28;20025;-79
2022/05/19 00:06:00;;;;;;;4.85;2.33;;;;;;;;;;5054840;28;20032;-80
2022/05/19 00:08:26;;;;;;;5.72;2.45;;;;;;;;;;5054286;28;20032;-80
2022/05/19 00:10:55;;;;;;;2.50;2.20;;;;;;;;;;5053921;28;20031;-80
2022/05/19 00:13:21;;;;;;;3.88;2.58;;;;;;;;;;5052547;28;20040;-79
2022/05/19 00:15:47;;;;;;;2.40;2.20;;;;;;;;;;5052629;28;20044;-78
2022/05/19 00:18:12;;;;;;;3.38;2.50;;;;;;;;;;5053349;28;20481;-79
2022/05/19 00:20:38;;;;;;;2.47;2.28;;;;;;;;;;5036163;28;20033;-81
2022/05/19 00:23:03;;;;;;;2.78;2.42;;;;;;;;;;5054582;28;20020;-79
2022/05/19 00:25:30;;;;;;;3.25;2.38;;;;;;;;;;5036304;28;20031;-79
2022/05/19 00:27:56;;;;;;;2.92;2.30;;;;;;;;;;5054302;28;20047;-78
2022/05/19 00:30:21;;;;;;;3.13;2.28;;;;;;;;;;5053641;28;20025;-78
2022/05/19 00:32:48;;;;;;;2.13;1.92;;;;;;;;;;5035771;28;20108;-79
2022/05/19 00:35:14;;;;;;;2.63;2.00;;;;;;;;;;5036140;28;20082;-77
2022/05/19 00:37:40;;;;;;;4.15;2.05;;;;;;;;;;5053806;28;20033;-79
2022/05/19 00:40:07;;;;;;;3.65;2.45;;;;;;;;;;5053487;28;20082;-81
2022/05/19 00:42:44;;;;;;;2.17;1.98;;;;;;;;;;5035042;28;20049;-79
2022/05/19 00:45:22;;;;;;;3.35;2.10;;;;;;;;;;5053207;28;20120;-79
2022/05/19 00:47:58;;;;;;;2.30;2.00;;;;;;;;;;5051693;28;20466;-80
2022/05/19 00:50:35;;;;;;;5.15;2.08;;;;;;;;;;5053259;28;20090;-79
2022/05/19 00:53:29;;;;;;;2.47;1.83;;;;;;;;;;5053302;28;20032;-79
2022/05/19 00:55:59;;;;;;;5.05;2.47;;;;;;;;;;5053594;28;20029;-78
2022/05/19 00:58:35;;;;;;;3.03;2.00;;;;;;;;;;5054456;28;20098;-77
2022/05/19 01:01:02;;;;;;;2.83;1.95;;;;;;;;;;5054144;28;20031;-79
2022/05/19 01:03:31;;;;;;;7.00;2.55;;;;;;;;;;5054309;28;20456;-79
2022/05/19 01:06:06;;;;;;;2.95;2.20;;;;;;;;;;5053712;28;20043;-79
2022/05/19 01:08:47;;;;;;;6.82;2.35;;;;;;;;;;5053916;28;20086;-79
2022/05/19 01:11:15;;;;;;;3.20;2.08;;;;;;;;;;5053852;28;20065;-79
2022/05/19 01:13:42;;;;;;;2.97;1.90;;;;;;;;;;5051662;28;20496;-80
2022/05/19 01:16:09;;;;;;;2.47;2.10;;;;;;;;;;5051527;28;20016;-80
2022/05/19 01:18:36;;;;;;;7.88;2.30;;;;;;;;;;5053367;28;20029;-79
2022/05/19 01:21:03;;;;;;;1.92;1.73;;;;;;;;;;5053336;28;20373;-79
2022/05/19 01:23:57;;;;;;;4.90;2.63;;;;;;;;;;5053113;28;20060;-79
2022/05/19 01:26:34;;;;;;;2.42;1.92;;;;;;;;;;5034537;28;20132;-80
2022/05/19 01:29:00;;;;;;;2.97;2.42;;;;;;;;;;5034606;28;20024;-77
2022/05/19 01:31:37;;;;;;;4.05;1.98;;;;;;;;;;5052761;28;20021;-80
2022/05/19 01:34:05;;;;;;;3.40;2.10;;;;;;;;;;5052606;28;20017;-79
2022/05/19 01:36:31;;;;;;;8.73;2.08;;;;;;;;;;5052655;28;20491;-79
2022/05/19 01:39:12;;;;;;;3.28;1.75;;;;;;;;;;5052788;28;20048;-79
2022/05/19 01:41:44;;;;;;;2.15;1.92;;;;;;;;;;5050905;28;20139;-79
2022/05/19 01:44:25;;;;;;;;;;;;;;;;;;5035079;28;20203;-78
2022/05/19 01:47:10;;;;;;;2.45;2.00;;;;;;;;;;5052349;28;19908;-79
2022/05/19 01:50:05;;;;;;;1.77;1.65;;;;;;;;;;5052433;28;20392;-78
2022/05/19 01:52:44;;;;;;;2.75;1.70;;;;;;;;;;5050785;28;20112;-79
2022/05/19 01:55:27;;;;;;;6.63;2.10;;;;;;;;;;5052485;28;20021;-80
2022/05/19 01:57:55;;;;;;;1.92;1.73;;;;;;;;;;5052392;28;20021;-81
2022/05/19 02:00:25;;;;;;;7.07;2.05;;;;;;;;;;5052302;28;20380;-79
2022/05/19 02:02:56;;;;;;;2.42;1.95;;;;;;;;;;5034130;28;20047;-79
2022/05/19 02:05:52;;;;;;;3.53;1.98;;;;;;;;;;5035493;28;20053;-79
2022/05/19 02:08:26;;;;;;;2.15;1.70;;;;;;;;;;5053178;28;20086;-81
2022/05/19 02:10:57;;;;;;;4.65;2.00;;;;;;;;;;5052529;28;20025;-80
2022/05/19 02:13:23;;;;;;;2.63;1.67;;;;;;;;;;5035187;28;20033;-78
2022/05/19 02:15:51;;;;;;;2.83;1.80;;;;;;;;;;5052192;28;20077;-80
2022/05/19 02:18:21;;;;;;;7.80;2.90;;;;;;;;;;5053052;28;20173;-80
2022/05/19 02:20:49;;;;;;;3.20;1.65;;;;;;;;;;5050847;28;20029;-79
2022/05/19 02:23:16;;;;;;;2.05;1.77;;;;;;;;;;5029878;28;20026;-80
2022/05/19 02:25:49;;;;;;;2.00;1.55;;;;;;;;;;5031022;28;20409;-79
2022/05/19 02:28:32;;;;;;;1.73;1.40;;;;;;;;;;5031549;28;20029;-79
2022/05/19 02:30:59;;;;;;;3.45;1.70;;;;;;;;;;5030980;28;20029;-78
2022/05/19 02:33:25;;;;;;;2.55;2.00;;;;;;;;;;5030355;28;20385;-79
2022/05/19 02:35:50;;;;;;;4.68;2.15;;;;;;;;;;5013495;28;20385;-79
2022/05/19 02:38:18;;;;;;;2.85;1.90;;;;;;;;;;5031394;28;20030;-79
2022/05/19 02:40:44;;;;;;;3.55;2.00;;;;;;;;;;5034257;28;20509;-77
2022/05/19 02:43:11;;;;;;;5.57;2.20;;;;;;;;;;5033670;28;20025;-78
2022/05/19 02:45:37;;;;;;;2.40;1.63;;;;;;;;;;5051307;28;20025;-78
2022/05/19 02:48:05;;;;;;;4.32;2.55;;;;;;;;;;5051147;28;20039;-77
2022/05/19 02:50:30;;;;;;;7.05;2.53;;;;;;;;;;5051052;28;20031;-78
2022/05/19 02:52:56;;;;;;;2.00;1.50;;;;;;;;;;5052002;28;20029;-79
2022/05/19 02:55:22;;;;;;;2.67;2.03;;;;;;;;;;5050382;28;20452;-79
2022/05/19 02:57:49;;;;;;;2.35;1.65;;;;;;;;;;5052084;28;20021;-79
2022/05/19 03:00:18;;;;;;;4.85;2.08;;;;;;;;;;5033045;28;20086;-79
2022/05/19 03:02:44;;;;;;;4.43;2.28;;;;;;;;;;5032954;28;20099;-80
2022/05/19 03:05:12;;;;;;;6.95;2.10;;;;;;;;;;5033306;28;20029;-78
2022/05/19 03:07:38;;;;;;;9.93;3.25;;;;;;;;;;5032676;28;20028;-79
2022/05/19 03:10:05;;;;;;;9.10;2.90;;;;;;;;;;5032710;28;20029;-80
2022/05/19 03:12:30;;;;;;;12.48;3.33;;;;;;;;;;5049654;28;20035;-79
2022/05/19 03:14:56;;;;;;;5.68;2.70;;;;;;;;;;5032399;28;20171;-79
2022/05/19 03:17:22;;;;;;;4.53;2.40;;;;;;;;;;5049728;28;20064;-80
2022/05/19 03:19:52;;;;;;;4.13;2.30;;;;;;;;;;5051023;28;20052;-78
2022/05/19 03:22:18;;;;;;;4.80;2.08;;;;;;;;;;5037740;28;20025;-80
2022/05/19 03:24:43;;;;;;;5.60;2.35;;;;;;;;;;5030115;28;20033;-79
2022/05/19 03:27:09;;;;;;;3.53;2.22;;;;;;;;;;5029535;28;20017;-80
2022/05/19 03:29:34;;;;;;;6.18;2.38;;;;;;;;;;5030273;28;20021;-79
2022/05/19 03:32:00;;;;;;;5.15;2.50;;;;;;;;;;5029807;28;20392;-79
2022/05/19 03:34:26;;;;;;;6.90;2.63;;;;;;;;;;5029601;28;20065;-80
2022/05/19 03:36:51;;;;;;;7.47;2.40;;;;;;;;;;5034423;28;20029;-79
2022/05/19 03:39:17;;;;;;;6.95;2.70;;;;;;;;;;5033850;28;20066;-79
2022/05/19 03:41:42;;;;;;;6.95;2.38;;;;;;;;;;5046423;28;20045;-80
2022/05/19 03:44:08;;;;;;;5.47;2.63;;;;;;;;;;5054522;28;20032;-79
2022/05/19 03:46:33;;;;;;;6.50;3.33;;;;;;;;;;5054493;28;20074;-79
2022/05/19 03:48:59;;;;;;;5.93;2.85;;;;;;;;;;5054882;28;20511;-79
2022/05/19 03:51:27;;;;;;;6.93;4.40;;;;;;;;;;5053420;28;20028;-79
2022/05/19 03:53:54;;;;;;;4.57;2.83;;;;;;;;;;5037242;28;20572;-80
2022/05/19 03:56:21;;;;;;;4.07;2.85;;;;;;;;;;5036581;28;20025;-80
2022/05/19 03:58:48;;;;;;;6.82;2.70;;;;;;;;;;5053437;28;20503;-80
2022/05/19 04:01:14;;;;;;;6.55;2.83;;;;;;;;;;5053215;28;20481;-76
2022/05/19 04:03:40;;;;;;;3.70;2.28;;;;;;;;;;5054979;28;20437;-77
2022/05/19 04:06:06;;;;;;;5.22;2.58;;;;;;;;;;5036532;28;20111;-79
2022/05/19 04:08:31;;;;;;;5.80;2.97;;;;;;;;;;5054445;28;20065;-79
2022/05/19 04:10:57;;;;;;;3.65;2.75;;;;;;;;;;5053119;28;20025;-79
2022/05/19 04:13:23;;;;;;;6.25;3.60;;;;;;;;;;5036812;28;20025;-79
2022/05/19 04:15:48;;;;;;;11.98;3.10;;;;;;;;;;5052911;28;20500;-79
2022/05/19 04:18:14;;;;;;;4.60;2.60;;;;;;;;;;5055106;28;20021;-79
2022/05/19 04:20:40;;;;;;;8.35;3.35;;;;;;;;;;5037121;28;20021;-80
2022/05/19 04:23:05;;;;;;;4.72;2.88;;;;;;;;;;5034922;28;20029;-77
2022/05/19 04:25:31;;;;;;;6.97;2.60;;;;;;;;;;5034234;28;20371;-80
2022/05/19 04:27:57;;;;;;;4.80;3.20;;;;;;;;;;5034268;28;20052;-79
2022/05/19 04:30:23;;;;;;;7.15;3.00;;;;;;;;;;5034047;28;20052;-80
2022/05/19 04:32:49;;;;;;;3.00;2.72;;;;;;;;;;5033925;28;20060;-78
2022/05/19 04:35:15;;;;;;;7.20;2.83;;;;;;;;;;5032556;28;20079;-80
2022/05/19 04:37:41;;;;;;;5.05;3.88;;;;;;;;;;5033879;28;20079;-80
2022/05/19 04:40:08;;;;;;;5.88;3.08;;;;;;;;;;5032254;28;20036;-80
2022/05/19 04:42:34;;;;;;;10.80;3.67;;;;;;;;;;5032804;28;20516;-79
2022/05/19 04:45:00;;;;;;;3.95;2.92;;;;;;;;;;5033666;28;20033;-80
2022/05/19 04:47:26;;;;;;;6.70;3.05;;;;;;;;;;5032176;28;20378;-81
2022/05/19 04:49:51;;;;;;;5.65;3.20;;;;;;;;;;5033908;28;20083;-80
2022/05/19 04:52:17;;;;;;;10.07;3.83;;;;;;;;;;5034775;28;20412;-77
2022/05/19 04:54:43;;;;;;;8.50;3.92;;;;;;;;;;5034988;28;20074;-80
2022/05/19 04:57:10;;;;;;;9.10;3.70;;;;;;;;;;5034705;28;20033;-80
2022/05/19 04:59:37;;;;;;;3.90;3.20;;;;;;;;;;5034522;28;20489;-81
2022/05/19 05:02:04;;;;;;;7.57;3.45;;;;;;;;;;5034461;28;20485;-80
2022/05/19 05:04:30;;;;;;;5.10;3.45;;;;;;;;;;5017384;28;20044;-80
2022/05/19 05:06:56;;;;;;;4.80;3.20;;;;;;;;;;5034000;28;20409;-78
2022/05/19 05:09:22;;;;;;;5.72;3.53;;;;;;;;;;5033466;28;20021;-80
2022/05/19 05:11:47;;;;;;;4.68;3.42;;;;;;;;;;5034315;28;20025;-80
2022/05/19 05:14:14;;;;;;;7.97;4.93;;;;;;;;;;5032422;28;20026;-78
2022/05/19 05:16:40;;;;;;;4.60;3.60;;;;;;;;;;5009021;28;20033;-77
2022/05/19 05:19:05;;;;;;;10.05;4.28;;;;;;;;;;5032488;28;20038;-78
2022/05/19 05:21:31;;;;;;;4.93;3.30;;;;;;;;;;5014544;28;20025;-80
2022/05/19 05:23:57;;;;;;;11.05;3.45;;;;;;;;;;5032964;28;20374;-79
2022/05/19 05:26:23;;;;;;;8.07;4.43;;;;;;;;;;5032509;28;20481;-80
2022/05/19 05:28:48;;;;;;;7.20;4.30;;;;;;;;;;5032512;28;20556;-79
2022/05/19 05:31:14;;;;;;;6.85;3.65;;;;;;;;;;5023486;28;20087;-80
2022/05/19 05:33:40;;;;;;;6.22;3.25;;;;;;;;;;5028363;28;20552;-79
2022/05/19 05:36:05;;;;;;;6.57;4.03;;;;;;;;;;5011591;28;20813;-79
2022/05/19 05:38:31;;;;;;;9.07;3.85;;;;;;;;;;5028900;28;20026;-78
2022/05/19 05:40:58;;;;;;;8.65;3.47;;;;;;;;;;5033545;28;20512;-77
2022/05/19 05:43:28;;;;;;;6.82;3.78;;;;;;;;;;5049878;28;20484;-80
2022/05/19 05:46:02;;;;;;;9.65;3.67;;;;;;;;;;5046113;28;20029;-77
2022/05/19 05:48:27;;;;;;;7.97;3.20;;;;;;;;;;5052644;28;20424;-76
2022/05/19 05:50:53;;;;;;;14.98;3.47;;;;;;;;;;5050985;28;20035;-77
2022/05/19 05:53:20;;;;;;;11.48;4.88;;;;;;;;;;5049728;28;20036;-77
2022/05/19 05:55:45;;;;;;;4.45;2.10;;;;;;;;;;5050862;28;20021;-78
2022/05/19 05:58:11;;;;;;;5.95;2.13;;;;;;;;;;5046408;28;20044;-77
2022/05/19 06:00:38;;;;;;;14.32;2.65;;;;;;;;;;5051812;28;20027;-77
2022/05/19 06:03:04;;;;;;;5.50;2.47;;;;;;;;;;5051848;28;20033;-76
2022/05/19 06:05:30;;;;;;;2.67;2.13;;;;;;;;;;5045696;28;20476;-80
2022/05/19 06:07:56;;;;;;;3.22;2.00;;;;;;;;;;5038919;28;20040;-79
2022/05/19 06:10:22;;;;;;;8.05;2.40;;;;;;;;;;5054925;28;20028;-78
2022/05/19 06:12:49;;;;;;;22.77;3.30;;;;;;;;;;5044265;28;20101;-76
2022/05/19 06:15:16;;;;;;;15.93;7.80;;;;;;;;;;5054224;28;20461;-77
2022/05/19 06:17:42;;;;;;;4.72;2.40;;;;;;;;;;5052037;28;20111;-78
2022/05/19 06:20:11;;;;;;;8.90;2.22;;;;;;;;;;5056436;28;20492;-76
2022/05/19 06:22:37;;;;;;;6.53;2.50;;;;;;;;;;5055587;28;20032;-77
2022/05/19 06:25:05;;;;;;;4.10;2.25;;;;;;;;;;5052545;28;20033;-77
2022/05/19 06:27:30;;;;;;;10.50;2.53;;;;;;;;;;5050533;28;20029;-79
2022/05/19 06:29:58;;;;;;;6.78;2.55;;;;;;;;;;5053892;28;20323;-79
2022/05/19 06:32:23;;;;;;;4.75;1.90;;;;;;;;;;5036310;28;20036;-80
2022/05/19 06:34:49;;;;;;;6.15;2.30;;;;;;;;;;5058242;28;20024;-81
2022/05/19 06:37:14;;;;;;;9.30;2.17;;;;;;;;;;5054564;28;20040;-78
2022/05/19 06:39:40;;;;;;;3.20;2.22;;;;;;;;;;5051694;28;20024;-77
2022/05/19 06:42:14;;;;;;;5.70;2.60;;;;;;;;;;5053282;28;20059;-78
2022/05/19 06:44:41;;;;;;;5.85;2.33;;;;;;;;;;5052201;28;20775;-77
2022/05/19 06:47:13;;;;;;;8.73;3.10;;;;;;;;;;5051242;28;20025;-79
2022/05/19 06:49:45;;;;;;;8.43;3.00;;;;;;;;;;5047300;28;20025;-76
2022/05/19 06:52:20;;;;;;;4.78;2.72;;;;;;;;;;5032452;28;20037;-79
2022/05/19 06:54:47;;;;;;;8.15;2.00;;;;;;;;;;5045216;28;20061;-77
2022/05/19 06:57:19;;;;;;;4.65;1.63;;;;;;;;;;5027304;28;20036;-76
2022/05/19 06:59:45;;;;;;;4.65;2.15;;;;;;;;;;5033751;28;20033;-84
2022/05/19 07:02:11;;;;;;;5.95;1.90;;;;;;;;;;5045161;28;20029;-77
2022/05/19 07:04:38;;;;;;;9.95;1.92;;;;;;;;;;5050806;28;20036;-78
2022/05/19 07:07:07;;;;;;;7.03;3.00;;;;;;;;;;5047003;28;20111;-78
2022/05/19 07:09:36;;;;;;;7.22;2.10;;;;;;;;;;5045951;28;20021;-78
2022/05/19 07:12:04;;;;;;;4.00;2.05;;;;;;;;;;5037885;28;20031;-79
2022/05/19 07:14:30;;;;;;;11.85;2.00;;;;;;;;;;5052681;28;20020;-79
2022/05/19 07:16:59;;;;;;;2.50;1.80;;;;;;;;;;5043849;28;20385;-80
2022/05/19 07:22:16;;;;;;;4.95;1.85;;;;;;;;;;5051362;28;20036;-78
2022/05/19 07:24:47;;;;;;;3.00;1.75;;;;;;;;;;5047627;28;20049;-78
2022/05/19 07:27:13;;;;;;;5.93;2.00;;;;;;;;;;5049309;28;20051;-78
2022/05/19 07:29:40;;;;;;;4.30;2.08;;;;;;;;;;5052183;28;20031;-79
2022/05/19 07:32:07;;;;;;;7.78;1.95;;;;;;;;;;5031848;28;20032;-77
2022/05/19 07:34:35;;;;;;;9.23;2.13;;;;;;;;;;5043341;28;20029;-78
2022/05/19 07:37:04;;;;;;;7.50;2.15;;;;;;;;;;5035067;28;20564;-79
2022/05/19 07:39:30;;;;;;;7.38;2.42;;;;;;;;;;5044070;28;20037;-78
2022/05/19 07:41:59;;;;;;;3.40;2.25;;;;;;;;;;5041713;28;20141;-79
2022/05/19 07:44:27;;;;;;;5.05;1.70;;;;;;;;;;5044798;28;20112;-77
2022/05/19 07:46:53;;;;;;;5.78;1.92;;;;;;;;;;5042656;28;20037;-80
2022/05/19 07:49:21;;;;;;;4.05;1.92;;;;;;;;;;5043391;28;20366;-82
2022/05/19 07:51:47;;;;;;;4.15;1.88;;;;;;;;;;5046900;28;20616;-80
2022/05/19 07:54:22;;;;;;;3.67;1.63;;;;;;;;;;5049964;28;20281;-77
2022/05/19 07:56:51;;;;;;;6.25;1.63;;;;;;;;;;5046752;28;20029;-80
2022/05/19 07:59:18;;;;;;;2.90;1.73;;;;;;;;;;5047471;28;20025;-81
2022/05/19 08:01:46;;;;;;;5.53;1.60;;;;;;;;;;5045755;28;20044;-80
2022/05/19 08:04:15;;;;;;;8.05;1.90;;;;;;;;;;5046642;28;20044;-82
2022/05/19 08:06:42;;;;;;;1.80;1.33;;;;;;;;;;5035105;28;20056;-81
2022/05/19 08:15:34;;;;;;;4.70;2.20;;;;;;;;;;5050024;28;20113;-84
2022/05/19 08:17:52;;;;;;;3.60;1.63;;;;;;;;;;5049070;28;20043;-82
2022/05/19 08:20:20;;;;;;;7.15;2.15;;;;;;;;;;5048560;28;20032;-83
2022/05/19 08:22:46;;;;;;;5.30;1.73;;;;;;;;;;5051763;28;20021;-79
2022/05/19 08:25:13;;;;;;;4.57;1.92;;;;;;;;;;5055710;28;20033;-81
2022/05/19 08:27:39;;;;;;;6.22;1.70;;;;;;;;;;5047702;28;20596;-78
2022/05/19 08:30:06;;;;;;;4.45;1.55;;;;;;;;;;5048920;28;20112;-77
2022/05/19 08:32:31;;;;;;;2.38;1.65;;;;;;;;;;5046194;28;20397;-80
2022/05/19 08:35:03;;;;;;;5.40;1.85;;;;;;;;;;5049847;28;20025;-78
2022/05/19 08:37:29;;;;;;;3.65;1.50;;;;;;;;;;5036123;28;20127;-77
2022/05/19 08:40:01;;;;;;;3.78;1.98;;;;;;;;;;5041348;28;20112;-78
2022/05/19 08:42:30;;;;;;;3.55;2.10;;;;;;;;;;5048278;28;21162;-78
2022/05/19 08:45:00;;;;;;;8.02;2.10;;;;;;;;;;5017934;28;20030;-78
2022/05/19 08:47:30;;;;;;;5.43;2.00;;;;;;;;;;5047773;28;20028;-78
2022/05/19 08:50:01;;;;;;;4.93;1.80;;;;;;;;;;5046072;28;20731;-76
2022/05/19 08:52:37;;;;;;;9.18;2.47;;;;;;;;;;5035786;28;20112;-79
2022/05/19 08:55:05;;;;;;;3.33;1.60;;;;;;;;;;5039200;28;20035;-81
2022/05/19 08:57:55;;;;;;;3.80;2.15;;;;;;;;;;5045230;28;20037;-81
2022/05/19 09:00:36;;;;;;;6.80;1.70;;;;;;;;;;5046470;28;20040;-77
2022/05/19 09:03:30;;;;;;;3.90;1.77;;;;;;;;;;5044207;28;20151;-80
2022/05/19 09:06:22;;;;;;;3.75;1.35;;;;;;;;;;5044256;28;20049;-80
2022/05/19 09:09:14;;;;;;;4.55;1.52;;;;;;;;;;5031553;28;20541;-79
2022/05/19 09:11:57;;;;;;;5.85;1.73;;;;;;;;;;5048222;28;20079;-80
2022/05/19 09:14:25;;;;;;;6.18;1.40;;;;;;;;;;5049781;28;20033;-79
2022/05/19 09:16:56;;;;;;;7.05;2.35;;;;;;;;;;5046580;28;20036;-79
2022/05/19 09:19:33;;;;;;;4.53;1.27;;;;;;;;;;5040791;28;20115;-79
2022/05/19 09:22:16;;;;;;;6.32;1.33;;;;;;;;;;5047671;28;20029;-82
2022/05/19 09:24:45;;;;;;;7.25;1.88;;;;;;;;;;5032945;28;20048;-79
2022/05/19 09:27:11;;;;;;;3.13;1.40;;;;;;;;;;5046929;28;20036;-77
2022/05/19 09:29:42;;;;;;;7.65;2.20;;;;;;;;;;5050905;28;20095;-79
2022/05/19 09:32:26;;;;;;;4.07;1.75;;;;;;;;;;5047472;28;20044;-78
2022/05/19 09:35:01;;;;;;;7.63;2.70;;;;;;;;;;5043018;28;20043;-79
2022/05/19 09:37:42;;;;;;;2.70;1.38;;;;;;;;;;5045287;28;20063;-77
2022/05/19 09:40:23;;;;;;;7.03;1.40;;;;;;;;;;5045737;28;20095;-78
2022/05/19 09:42:53;;;;;;;4.35;1.38;;;;;;;;;;5048766;28;20051;-79
2022/05/19 09:45:21;;;;;;;3.90;1.40;;;;;;;;;;5028645;28;20037;-78
2022/05/19 09:47:57;;;;;;;3.88;1.35;;;;;;;;;;5041304;28;20021;-80
2022/05/19 09:50:31;;;;;;;10.85;2.78;;;;;;;;;;5048252;28;20033;-79
2022/05/19 09:53:26;;;;;;;7.18;2.05;;;;;;;;;;5049728;28;20013;-81
2022/05/19 09:56:09;;;;;;;3.05;1.40;;;;;;;;;;5044688;28;20074;-79
2022/05/19 09:58:38;;;;;;;1.75;1.20;;;;;;;;;;5045708;28;20859;-77
2022/05/19 10:01:08;;;;;;;6.22;1.60;;;;;;;;;;5034008;28;20032;-78
2022/05/19 10:03:38;;;;;;;1.83;1.35;;;;;;;;;;5031781;28;20056;-78
2022/05/19 10:06:20;;;;;;;5.03;1.47;;;;;;;;;;5043194;28;20035;-76
2022/05/19 10:08:47;;;;;;;2.65;1.50;;;;;;;;;;5037554;28;20281;-77
2022/05/19 10:11:17;;;;;;;3.63;1.35;;;;;;;;;;5045527;28;20191;-81
2022/05/19 10:13:48;;;;;;;1.88;1.50;;;;;;;;;;5045413;28;20031;-79
2022/05/19 10:16:52;;;;;;;8.63;1.52;;;;;;;;;;5044649;28;20047;-77
2022/05/19 10:19:29;;;;;;;2.70;1.30;;;;;;;;;;5044217;28;20098;-80
2022/05/19 10:22:19;;;;;;;8.93;2.17;;;;;;;;;;5040025;28;20496;-75
2022/05/19 10:25:16;;;;;;;1.92;1.30;;;;;;;;;;5044502;28;20057;-77
2022/05/19 10:31:07;;;;;;;3.13;1.60;;;;;;;;;;5046214;28;20055;-78
2022/05/19 10:34:21;;;;;;;3.85;1.73;;;;;;;;;;5047645;28;20083;-78
2022/05/19 10:37:22;;;;;;;14.32;2.08;;;;;;;;;;4990641;28;20033;-76
2022/05/19 10:39:59;;;;;;;11.20;2.28;;;;;;;;;;5024010;28;20041;-78
2022/05/19 10:42:36;;;;;;;6.00;1.48;;;;;;;;;;5041324;28;20133;-78
2022/05/19 10:45:27;;;;;;;8.23;1.80;;;;;;;;;;5025460;28;20048;-78
2022/05/19 10:48:12;;;;;;;3.15;1.60;;;;;;;;;;5045359;28;20083;-77
2022/05/19 10:50:50;;;;;;;3.92;1.63;;;;;;;;;;5047485;28;20540;-76
2022/05/19 10:53:27;;;;;;;5.88;2.55;;;;;;;;;;5044214;28;20033;-78
2022/05/19 10:56:14;;;;;;;2.67;1.38;;;;;;;;;;5045137;28;20021;-78
2022/05/19 10:58:53;;;;;;;4.03;1.60;;;;;;;;;;5046289;28;20053;-79
2022/05/19 11:01:33;;;;;;;1.50;1.40;;;;;;;;;;5045501;28;20094;-78
2022/05/19 11:04:11;;;;;;;4.00;1.20;;;;;;;;;;5043249;28;20443;-77
2022/05/19 11:06:43;;;;;;;5.93;1.70;;;;;;;;;;5041077;28;20068;-79
2022/05/19 11:09:17;;;;;;;5.07;1.90;;;;;;;;;;5044021;28;20029;-79
2022/05/19 11:11:53;;;;;;;2.85;1.55;;;;;;;;;;5043648;28;20096;-78
2022/05/19 11:14:44;;;;;;;5.82;1.45;;;;;;;;;;5040387;28;20078;-77
2022/05/19 11:17:18;;;;;;;5.68;2.38;;;;;;;;;;5041015;28;20037;-80
2022/05/19 11:19:55;;;;;;;2.55;1.55;;;;;;;;;;5041743;28;20040;-76
2022/05/19 11:22:26;;;;;;;2.95;1.30;;;;;;;;;;5042706;28;20055;-76
2022/05/19 11:28:25;;;;;;;8.35;2.08;;;;;;;;;;5015368;28;20036;-77
2022/05/19 11:31:06;;;;;;;10.02;1.55;;;;;;;;;;4962920;28;20045;-74
2022/05/19 11:33:37;;;;;;;3.63;1.30;;;;;;;;;;5038817;28;20464;-76
2022/05/19 11:36:18;;;;;;;;;;;;;;;;;;5026756;28;20039;-78
2022/05/19 11:39:08;;;;;;;1.60;1.10;;;;;;;;;;5040867;28;19916;-76
2022/05/19 11:41:37;;;;;;;1.80;0.95;;;;;;;;;;5035382;28;20141;-74
2022/05/19 11:44:05;;;;;;;6.85;1.67;;;;;;;;;;5039455;28;20037;-78
2022/05/19 11:46:40;;;;;;;6.25;2.05;;;;;;;;;;5036669;28;20056;-77
2022/05/19 11:55:32;;;;;;;1.70;1.33;;;;;;;;;;5041502;28;20504;-77
2022/05/19 11:58:27;;;;;;;6.00;1.48;;;;;;;;;;5029682;28;20478;-75
2022/05/19 12:01:17;;;;;;;3.30;2.13;;;;;;;;;;5022036;28;20124;-79
2022/05/19 12:04:03;;;;;;;4.40;1.40;;;;;;;;;;5044511;28;20040;-78
2022/05/19 12:06:35;;;;;;;5.75;1.17;;;;;;;;;;5038999;28;20432;-78
2022/05/19 12:09:09;;;;;;;2.72;1.25;;;;;;;;;;5032444;28;20150;-77
2022/05/19 12:11:40;;;;;;;6.55;1.50;;;;;;;;;;5046164;28;20029;-78
2022/05/19 12:14:30;;;;;;;3.53;1.55;;;;;;;;;;5047206;28;20429;-77
2022/05/19 12:17:00;;;;;;;3.90;1.40;;;;;;;;;;5031586;28;20067;-80
2022/05/19 12:19:37;;;;;;;4.65;1.48;;;;;;;;;;5046575;28;20385;-80
2022/05/19 12:22:36;;;;;;;4.50;1.55;;;;;;;;;;5044559;28;20043;-78
2022/05/19 12:25:06;;;;;;;4.50;1.30;;;;;;;;;;5045726;28;20033;-76
2022/05/19 12:27:37;;;;;;;9.90;4.25;;;;;;;;;;5043898;28;21303;-77
2022/05/19 12:33:13;;;;;;;7.10;1.15;;;;;;;;;;5047770;28;20122;-79
2022/05/19 12:35:41;;;;;;;3.13;1.30;;;;;;;;;;5032981;28;20686;-79
2022/05/19 12:38:31;;;;;;;2.95;1.25;;;;;;;;;;5044199;28;20415;-79
2022/05/19 12:41:01;;;;;;;3.08;1.20;;;;;;;;;;5046575;28;20420;-78
2022/05/19 12:43:42;;;;;;;3.33;1.30;;;;;;;;;;5048785;28;20099;-76
2022/05/19 12:46:13;;;;;;;2.40;0.90;;;;;;;;;;5044180;28;20522;-80
2022/05/19 12:48:38;;;;;;;4.72;1.20;;;;;;;;;;5046161;28;20033;-77
2022/05/19 12:51:24;;;;;;;2.25;1.17;;;;;;;;;;5048318;28;20040;-79
2022/05/19 12:53:49;;;;;;;1.10;1.00;;;;;;;;;;5048170;28;20111;-80
2022/05/19 12:56:40;;;;;;;7.15;1.92;;;;;;;;;;5043590;28;20540;-77
2022/05/19 12:59:07;;;;;;;7.35;1.60;;;;;;;;;;5047730;28;20116;-78
2022/05/19 13:01:37;;;;;;;2.60;1.52;;;;;;;;;;5043650;28;20040;-77
2022/05/19 13:04:21;;;;;;;1.40;0.90;;;;;;;;;;5047632;28;20024;-78
2022/05/19 13:06:55;;;;;;;5.00;1.25;;;;;;;;;;5029087;28;20037;-78
2022/05/19 13:09:26;;;;;;;7.15;1.48;;;;;;;;;;5042710;28;20407;-78
2022/05/19 13:11:54;;;;;;;;;;;;;;;;;;5046987;28;20048;-78
2022/05/19 13:14:34;;;;;;;6.55;1.80;;;;;;;;;;5044744;28;19956;-77
2022/05/19 13:17:03;;;;;;;4.95;1.00;;;;;;;;;;5030812;28;20546;-79
2022/05/19 13:19:31;;;;;;;2.97;1.20;;;;;;;;;;5027990;28;20605;-78
2022/05/19 13:21:58;;;;;;;2.80;1.10;;;;;;;;;;5030829;28;20028;-78
2022/05/19 13:24:26;;;;;;;3.83;1.67;;;;;;;;;;5044557;28;20029;-76
2022/05/19 13:32:29;;;;;;;1.33;0.85;;;;;;;;;;5044573;28;20040;-76
2022/05/19 13:35:07;;;;;;;1.73;1.05;;;;;;;;;;5044086;28;20249;-80
2022/05/19 13:37:36;;;;;;;3.35;1.30;;;;;;;;;;5039406;28;20036;-76
2022/05/19 13:40:28;;;;;;;1.90;1.25;;;;;;;;;;5044134;28;20041;-77
2022/05/19 13:43:08;;;;;;;7.18;1.35;;;;;;;;;;5045413;28;20049;-78
2022/05/19 13:45:37;;;;;;;3.58;1.33;;;;;;;;;;5043808;28;20045;-75
2022/05/19 13:48:31;;;;;;;3.75;1.25;;;;;;;;;;5037279;28;20102;-83
2022/05/19 13:51:04;;;;;;;5.00;1.08;;;;;;;;;;5042463;28;20041;-75
2022/05/19 13:53:35;;;;;;;2.42;1.38;;;;;;;;;;5045718;28;20039;-74
2022/05/19 13:56:03;;;;;;;2.42;1.10;;;;;;;;;;5043487;28;20026;-76
2022/05/19 13:58:31;;;;;;;6.10;1.00;;;;;;;;;;5043607;28;20226;-77
2022/05/19 14:01:00;;;;;;;2.83;1.10;;;;;;;;;;5040163;28;20035;-77
2022/05/19 14:03:29;;;;;;;4.22;1.15;;;;;;;;;;5042271;28;20043;-76
2022/05/19 14:05:59;;;;;;;2.50;1.13;;;;;;;;;;5045482;28;20040;-78
2022/05/19 14:08:29;;;;;;;3.45;1.13;;;;;;;;;;5041427;28;20059;-76
2022/05/19 14:10:58;;;;;;;1.80;1.23;;;;;;;;;;5042175;28;20032;-78
2022/05/19 14:13:30;;;;;;;2.40;0.93;;;;;;;;;;5026500;28;20040;-78
2022/05/19 14:16:14;;;;;;;3.50;1.20;;;;;;;;;;5039703;28;20106;-77
2022/05/19 14:18:42;;;;;;;5.18;2.10;;;;;;;;;;5040245;28;20075;-78
2022/05/19 14:21:17;;;;;;;0.80;0.70;;;;;;;;;;5041317;28;20073;-79
2022/05/19 14:24:03;;;;;;;4.97;0.80;;;;;;;;;;5042759;28;20036;-78
2022/05/19 14:26:38;;;;;;;4.80;1.17;;;;;;;;;;5039932;28;20519;-79
2022/05/19 14:29:04;;;;;;;4.38;0.85;;;;;;;;;;5040451;28;20057;-78
2022/05/19 14:31:50;;;;;;;3.97;1.10;;;;;;;;;;5042671;28;20072;-77
2022/05/19 14:34:28;;;;;;;2.33;0.90;;;;;;;;;;5045204;28;20017;-78
2022/05/19 14:37:20;;;;;;;2.00;1.00;;;;;;;;;;5039405;28;20460;-78
2022/05/19 14:39:52;;;;;;;2.85;0.90;;;;;;;;;;5018459;28;20116;-77
2022/05/19 14:45:15;;;;;;;4.43;0.85;;;;;;;;;;5043323;28;20051;-78
2022/05/19 14:47:47;;;;;;;3.40;0.90;;;;;;;;;;5038935;28;20033;-77
2022/05/19 14:50:22;;;;;;;1.10;0.70;;;;;;;;;;5039686;28;20186;-77
2022/05/19 14:52:51;;;;;;;6.13;0.75;;;;;;;;;;5043716;28;20025;-76
2022/05/19 14:55:30;;;;;;;1.30;0.75;;;;;;;;;;5033371;28;20029;-77
2022/05/19 14:57:59;;;;;;;1.58;0.77;;;;;;;;;;5041894;28;20346;-79
2022/05/19 15:00:30;;;;;;;4.35;1.20;;;;;;;;;;5041353;28;20036;-77
2022/05/19 15:02:56;;;;;;;1.48;0.77;;;;;;;;;;5043058;28;20052;-76
2022/05/19 15:05:24;;;;;;;0.90;0.70;;;;;;;;;;5041999;28;20082;-76
2022/05/19 15:07:53;;;;;;;2.72;0.60;;;;;;;;;;5047428;28;20483;-78
2022/05/19 15:10:23;;;;;;;1.50;0.63;;;;;;;;;;5049506;28;20072;-78
2022/05/19 15:12:50;;;;;;;2.92;1.02;;;;;;;;;;5031794;28;20032;-77
2022/05/19 15:15:16;;;;;;;2.60;1.15;;;;;;;;;;5046120;28;21000;-77
2022/05/19 15:17:42;;;;;;;16.75;3.80;;;;;;;;;;5048720;28;20024;-78
2022/05/19 15:20:10;;;;;;;4.70;1.48;;;;;;;;;;5046621;28;20059;-78
2022/05/19 15:22:37;;;;;;;5.15;1.27;;;;;;;;;;5049169;28;20052;-80
2022/05/19 15:25:04;;;;;;;1.52;0.88;;;;;;;;;;5049305;28;20417;-77
2022/05/19 15:27:32;;;;;;;2.25;0.82;;;;;;;;;;5049545;28;20384;-77
2022/05/19 15:29:58;;;;;;;1.50;1.08;;;;;;;;;;5048503;28;20071;-78
2022/05/19 15:32:25;;;;;;;4.90;0.77;;;;;;;;;;5050958;28;20044;-77
2022/05/19 15:34:52;;;;;;;5.43;0.75;;;;;;;;;;5034798;28;20059;-78
2022/05/19 15:37:19;;;;;;;2.80;0.90;;;;;;;;;;5060901;28;20085;-78
2022/05/19 15:39:46;;;;;;;1.00;1.00;;;;;;;;;;5034185;28;20037;-79
2022/05/19 15:42:14;;;;;;;2.97;1.15;;;;;;;;;;5049158;28;20045;-78